createdAt,value
2017-05-13T00:00:04.089Z,828.92
2017-05-13T00:00:08.282Z,828.95
2017-05-13T00:00:12.470Z,828.91
2017-05-13T00:00:16.910Z,828.9
2017-05-13T00:00:21.393Z,828.95
2017-05-13T00:00:25.826Z,828.94
2017-05-13T00:00:30.252Z,828.95
2017-05-13T00:00:34.689Z,828.95
2017-05-13T00:00:39.117Z,828.92
2017-05-13T00:00:43.540Z,828.96
2017-05-13T00:00:47.974Z,828.95
2017-05-13T00:00:52.289Z,828.96
2017-05-13T00:00:56.757Z,828.94
2017-05-13T00:01:01.070Z,828.88
2017-05-13T00:01:05.539Z,828.92
2017-05-13T00:01:09.863Z,828.94
2017-05-13T00:01:14.324Z,828.91
2017-05-13T00:01:18.513Z,828.92
2017-05-13T00:01:22.939Z,828.98
2017-05-13T00:01:27.251Z,828.98
2017-05-13T00:01:31.713Z,828.97
2017-05-13T00:01:36.138Z,828.99
2017-05-13T00:01:40.591Z,828.96
2017-05-13T00:01:45.076Z,828.97
2017-05-13T00:01:49.507Z,829
2017-05-13T00:01:53.932Z,828.97
2017-05-13T00:01:58.375Z,828.98
2017-05-13T00:02:03.035Z,828.99
2017-05-13T00:02:07.343Z,829.01
2017-05-13T00:02:11.659Z,829
2017-05-13T00:02:16.083Z,828.99
2017-05-13T00:02:20.508Z,828.99
2017-05-13T00:02:24.941Z,828.97
2017-05-13T00:02:29.370Z,829.02
2017-05-13T00:02:33.825Z,828.97
2017-05-13T00:02:38.138Z,828.98
2017-05-13T00:02:42.565Z,829.02
2017-05-13T00:02:46.756Z,829
2017-05-13T00:02:51.196Z,829.01
2017-05-13T00:02:55.626Z,829.04
2017-05-13T00:02:59.938Z,829.02
2017-05-13T00:03:04.021Z,829.02
2017-05-13T00:03:08.450Z,829.03
2017-05-13T00:03:12.758Z,829.04
2017-05-13T00:03:16.947Z,829.03
2017-05-13T00:03:21.251Z,829.05
2017-05-13T00:03:25.694Z,829.05
2017-05-13T00:03:30.122Z,829.07
2017-05-13T00:03:34.549Z,829.07
2017-05-13T00:03:38.976Z,829.05
2017-05-13T00:03:43.320Z,829.04
2017-05-13T00:03:47.632Z,829.04
2017-05-13T00:03:52.068Z,829.06
2017-05-13T00:03:56.415Z,829.04
2017-05-13T00:04:00.843Z,829.09
2017-05-13T00:04:05.035Z,829.05
2017-05-13T00:04:09.347Z,829.05
2017-05-13T00:04:13.680Z,829.09
2017-05-13T00:04:17.872Z,829.09
2017-05-13T00:04:22.309Z,829.1
2017-05-13T00:04:26.740Z,829.1
2017-05-13T00:04:31.218Z,829.08
2017-05-13T00:04:35.655Z,829.04
2017-05-13T00:04:39.967Z,829.05
2017-05-13T00:04:44.391Z,829.09
2017-05-13T00:04:48.837Z,829.07
2017-05-13T00:04:53.310Z,829.1
2017-05-13T00:04:57.752Z,829.11
2017-05-13T00:05:02.327Z,829.12
2017-05-13T00:05:06.634Z,829.09
2017-05-13T00:05:11.070Z,829.11
2017-05-13T00:05:15.499Z,829.12
2017-05-13T00:05:19.688Z,829.11
2017-05-13T00:05:24.119Z,829.15
2017-05-13T00:05:28.545Z,829.11
2017-05-13T00:05:32.973Z,829.11
2017-05-13T00:05:37.413Z,829.13
2017-05-13T00:05:41.837Z,829.13
2017-05-13T00:05:46.279Z,829.14
2017-05-13T00:05:50.706Z,829.11
2017-05-13T00:05:55.015Z,829.12
2017-05-13T00:05:59.216Z,829.12
2017-05-13T00:06:03.646Z,829.12
2017-05-13T00:06:07.719Z,829.14
2017-05-13T00:06:12.034Z,829.12
2017-05-13T00:06:16.472Z,829.11
2017-05-13T00:06:20.893Z,829.14
2017-05-13T00:06:25.325Z,829.14
2017-05-13T00:06:29.758Z,829.14
2017-05-13T00:06:34.185Z,829.12
2017-05-13T00:06:38.609Z,829.15
2017-05-13T00:06:43.048Z,829.15
2017-05-13T00:06:47.486Z,829.16
2017-05-13T00:06:51.920Z,829.16
2017-05-13T00:06:56.229Z,829.17
2017-05-13T00:07:00.305Z,829.13
2017-05-13T00:07:04.774Z,829.11
2017-05-13T00:07:09.204Z,829.16
2017-05-13T00:07:13.509Z,829.16
2017-05-13T00:07:17.833Z,829.17
2017-05-13T00:07:22.262Z,829.15
2017-05-13T00:07:26.692Z,829.18
2017-05-13T00:07:31.122Z,829.18
2017-05-13T00:07:35.437Z,829.15
2017-05-13T00:07:39.919Z,829.21
2017-05-13T00:07:44.346Z,829.19
2017-05-13T00:07:48.777Z,829.2
2017-05-13T00:07:53.021Z,829.19
2017-05-13T00:07:57.458Z,829.2
2017-05-13T00:08:02.122Z,829.2
2017-05-13T00:08:06.547Z,829.18
2017-05-13T00:08:10.745Z,829.17
2017-05-13T00:08:15.227Z,829.16
2017-05-13T00:08:19.540Z,829.2
2017-05-13T00:08:23.976Z,829.19
2017-05-13T00:08:28.408Z,829.24
2017-05-13T00:08:32.842Z,829.22
2017-05-13T00:08:37.279Z,829.26
2017-05-13T00:08:41.705Z,829.21
2017-05-13T00:08:46.154Z,829.23
2017-05-13T00:08:50.597Z,829.25
2017-05-13T00:08:55.028Z,829.24
2017-05-13T00:08:59.346Z,829.22
2017-05-13T00:09:03.911Z,829.25
2017-05-13T00:09:08.104Z,829.25
2017-05-13T00:09:12.180Z,829.21
2017-05-13T00:09:16.608Z,829.23
2017-05-13T00:09:20.971Z,829.23
2017-05-13T00:09:25.405Z,829.22
2017-05-13T00:09:29.833Z,829.18
2017-05-13T00:09:34.259Z,829.22
2017-05-13T00:09:38.695Z,829.22
2017-05-13T00:09:43.146Z,829.22
2017-05-13T00:09:47.579Z,829.25
2017-05-13T00:09:51.893Z,829.25
2017-05-13T00:09:56.097Z,829.25
2017-05-13T00:10:00.405Z,829.26
2017-05-13T00:10:05.098Z,829.24
2017-05-13T00:10:09.411Z,829.21
2017-05-13T00:10:13.835Z,829.25
2017-05-13T00:10:18.142Z,829.26
2017-05-13T00:10:22.612Z,829.26
2017-05-13T00:10:27.043Z,829.25
2017-05-13T00:10:31.478Z,829.25
2017-05-13T00:10:35.795Z,829.28
2017-05-13T00:10:40.225Z,829.26
2017-05-13T00:10:44.717Z,829.27
2017-05-13T00:10:49.143Z,829.27
2017-05-13T00:10:53.450Z,829.25
2017-05-13T00:10:57.878Z,829.27
2017-05-13T00:11:02.308Z,829.29
2017-05-13T00:11:06.742Z,829.28
2017-05-13T00:11:10.819Z,829.24
2017-05-13T00:11:15.126Z,829.28
2017-05-13T00:11:19.565Z,829.27
2017-05-13T00:11:23.995Z,829.28
2017-05-13T00:11:28.418Z,829.29
2017-05-13T00:11:32.862Z,829.25
2017-05-13T00:11:37.172Z,829.26
2017-05-13T00:11:41.483Z,829.28
2017-05-13T00:11:45.798Z,829.24
2017-05-13T00:11:50.114Z,829.28
2017-05-13T00:11:54.544Z,829.25
2017-05-13T00:11:58.978Z,829.27
2017-05-13T00:12:03.344Z,829.26
2017-05-13T00:12:07.661Z,829.28
2017-05-13T00:12:11.859Z,829.31
2017-05-13T00:12:16.284Z,829.23
2017-05-13T00:12:20.482Z,829.25
2017-05-13T00:12:24.908Z,829.27
2017-05-13T00:12:29.333Z,829.3
2017-05-13T00:12:33.761Z,829.28
2017-05-13T00:12:38.195Z,829.29
2017-05-13T00:12:42.392Z,829.28
2017-05-13T00:12:46.834Z,829.26
2017-05-13T00:12:51.037Z,829.29
2017-05-13T00:12:55.495Z,829.24
2017-05-13T00:12:59.687Z,829.27
2017-05-13T00:13:04.076Z,829.28
2017-05-13T00:13:08.404Z,829.28
2017-05-13T00:13:12.602Z,829.29
2017-05-13T00:13:16.794Z,829.32
2017-05-13T00:13:21.222Z,829.31
2017-05-13T00:13:25.537Z,829.28
2017-05-13T00:13:29.965Z,829.3
2017-05-13T00:13:34.159Z,829.26
2017-05-13T00:13:38.356Z,829.31
2017-05-13T00:13:42.668Z,829.3
2017-05-13T00:13:47.101Z,829.28
2017-05-13T00:13:51.415Z,829.29
2017-05-13T00:13:55.726Z,829.31
2017-05-13T00:14:00.038Z,829.34
2017-05-13T00:14:04.465Z,829.3
2017-05-13T00:14:08.659Z,829.36
2017-05-13T00:14:12.982Z,829.34
2017-05-13T00:14:17.408Z,829.29
2017-05-13T00:14:21.841Z,829.3
2017-05-13T00:14:26.271Z,829.3
2017-05-13T00:14:30.753Z,829.29
2017-05-13T00:14:34.947Z,829.29
2017-05-13T00:14:39.376Z,829.28
2017-05-13T00:14:43.690Z,829.29
2017-05-13T00:14:48.123Z,829.29
2017-05-13T00:14:52.555Z,829.26
2017-05-13T00:14:56.866Z,829.29
2017-05-13T00:15:01.176Z,829.27
2017-05-13T00:15:05.644Z,829.24
2017-05-13T00:15:10.069Z,829.28
2017-05-13T00:15:14.312Z,829.29
2017-05-13T00:15:18.744Z,829.26
2017-05-13T00:15:23.056Z,829.23
2017-05-13T00:15:27.476Z,829.27
2017-05-13T00:15:31.783Z,829.26
2017-05-13T00:15:36.013Z,829.25
2017-05-13T00:15:40.323Z,829.22
2017-05-13T00:15:44.754Z,829.24
2017-05-13T00:15:49.070Z,829.2
2017-05-13T00:15:53.427Z,829.21
2017-05-13T00:15:57.858Z,829.19
2017-05-13T00:16:02.538Z,829.21
2017-05-13T00:16:06.963Z,829.2
2017-05-13T00:16:11.160Z,829.2
2017-05-13T00:16:15.358Z,829.18
2017-05-13T00:16:19.670Z,829.15
2017-05-13T00:16:23.981Z,829.18
2017-05-13T00:16:28.292Z,829.18
2017-05-13T00:16:32.607Z,829.15
2017-05-13T00:16:37.049Z,829.11
2017-05-13T00:16:41.524Z,829.17
2017-05-13T00:16:45.955Z,829.09
2017-05-13T00:16:50.384Z,829.08
2017-05-13T00:16:54.700Z,829.13
2017-05-13T00:16:59.134Z,829.11
2017-05-13T00:17:03.445Z,829.11
2017-05-13T00:17:07.747Z,829.06
2017-05-13T00:17:12.065Z,829.04
2017-05-13T00:17:16.184Z,829.05
2017-05-13T00:17:20.611Z,829.06
2017-05-13T00:17:25.037Z,829.05
2017-05-13T00:17:29.344Z,829.02
2017-05-13T00:17:33.774Z,828.96
2017-05-13T00:17:38.200Z,828.99
2017-05-13T00:17:42.633Z,828.95
2017-05-13T00:17:47.067Z,828.95
2017-05-13T00:17:51.382Z,828.91
2017-05-13T00:17:55.808Z,828.92
2017-05-13T00:18:00.241Z,828.88
2017-05-13T00:18:04.552Z,828.89
2017-05-13T00:18:08.984Z,828.86
2017-05-13T00:18:13.180Z,828.86
2017-05-13T00:18:17.505Z,828.84
2017-05-13T00:18:21.979Z,828.82
2017-05-13T00:18:26.293Z,828.81
2017-05-13T00:18:30.720Z,828.75
2017-05-13T00:18:35.155Z,828.77
2017-05-13T00:18:39.470Z,828.74
2017-05-13T00:18:43.898Z,828.73
2017-05-13T00:18:48.204Z,828.7
2017-05-13T00:18:52.515Z,828.73
2017-05-13T00:18:56.962Z,828.71
2017-05-13T00:19:01.281Z,828.66
2017-05-13T00:19:05.583Z,828.65
2017-05-13T00:19:09.891Z,828.64
2017-05-13T00:19:14.319Z,828.61
2017-05-13T00:19:18.748Z,828.61
2017-05-13T00:19:23.054Z,828.6
2017-05-13T00:19:27.487Z,828.58
2017-05-13T00:19:31.917Z,828.55
2017-05-13T00:19:36.285Z,828.54
2017-05-13T00:19:40.711Z,828.47
2017-05-13T00:19:45.145Z,828.5
2017-05-13T00:19:49.576Z,828.48
2017-05-13T00:19:53.882Z,828.46
2017-05-13T00:19:58.196Z,828.41
2017-05-13T00:20:02.632Z,828.39
2017-05-13T00:20:06.822Z,828.45
2017-05-13T00:20:11.252Z,828.4
2017-05-13T00:20:15.329Z,828.36
2017-05-13T00:20:19.525Z,828.38
2017-05-13T00:20:23.953Z,828.33
2017-05-13T00:20:28.383Z,828.35
2017-05-13T00:20:32.807Z,828.3
2017-05-13T00:20:37.237Z,828.31
2017-05-13T00:20:41.717Z,828.29
2017-05-13T00:20:46.142Z,828.27
2017-05-13T00:20:50.574Z,828.27
2017-05-13T00:20:55.015Z,828.21
2017-05-13T00:20:59.446Z,828.2
2017-05-13T00:21:04.125Z,828.17
2017-05-13T00:21:08.316Z,828.18
2017-05-13T00:21:12.507Z,828.16
2017-05-13T00:21:16.820Z,828.13
2017-05-13T00:21:21.249Z,828.11
2017-05-13T00:21:25.556Z,828.09
2017-05-13T00:21:29.982Z,828.07
2017-05-13T00:21:34.411Z,828.08
2017-05-13T00:21:38.732Z,828.04
2017-05-13T00:21:43.166Z,828.04
2017-05-13T00:21:47.589Z,828.04
2017-05-13T00:21:52.018Z,828.03
2017-05-13T00:21:56.334Z,827.97
2017-05-13T00:22:00.641Z,828
2017-05-13T00:22:04.708Z,827.99
2017-05-13T00:22:08.914Z,827.96
2017-05-13T00:22:13.225Z,827.95
2017-05-13T00:22:17.416Z,827.93
2017-05-13T00:22:21.850Z,827.9
2017-05-13T00:22:26.166Z,827.92
2017-05-13T00:22:30.604Z,827.89
2017-05-13T00:22:35.035Z,827.89
2017-05-13T00:22:39.345Z,827.85
2017-05-13T00:22:43.803Z,827.87
2017-05-13T00:22:48.229Z,827.88
2017-05-13T00:22:52.666Z,827.83
2017-05-13T00:22:56.747Z,827.83
2017-05-13T00:23:01.059Z,827.81
2017-05-13T00:23:05.548Z,827.8
2017-05-13T00:23:09.980Z,827.8
2017-05-13T00:23:14.409Z,827.76
2017-05-13T00:23:18.611Z,827.75
2017-05-13T00:23:23.046Z,827.75
2017-05-13T00:23:27.478Z,827.72
2017-05-13T00:23:31.907Z,827.72
2017-05-13T00:23:36.212Z,827.73
2017-05-13T00:23:40.531Z,827.7
2017-05-13T00:23:45.016Z,827.73
2017-05-13T00:23:49.452Z,827.69
2017-05-13T00:23:53.892Z,827.68
2017-05-13T00:23:58.331Z,827.69
2017-05-13T00:24:02.811Z,827.64
2017-05-13T00:24:07.241Z,827.68
2017-05-13T00:24:11.322Z,827.66
2017-05-13T00:24:15.525Z,827.66
2017-05-13T00:24:19.765Z,827.67
2017-05-13T00:24:24.194Z,827.64
2017-05-13T00:24:28.628Z,827.61
2017-05-13T00:24:33.058Z,827.62
2017-05-13T00:24:37.494Z,827.6
2017-05-13T00:24:41.820Z,827.56
2017-05-13T00:24:46.258Z,827.6
2017-05-13T00:24:50.677Z,827.52
2017-05-13T00:24:55.105Z,827.52
2017-05-13T00:24:59.466Z,827.5
2017-05-13T00:25:03.660Z,827.56
2017-05-13T00:25:08.094Z,827.59
2017-05-13T00:25:12.558Z,827.57
2017-05-13T00:25:16.865Z,827.55
2017-05-13T00:25:21.062Z,827.51
2017-05-13T00:25:25.381Z,827.48
2017-05-13T00:25:29.863Z,827.51
2017-05-13T00:25:34.286Z,827.5
2017-05-13T00:25:38.712Z,827.51
2017-05-13T00:25:43.044Z,827.5
2017-05-13T00:25:47.473Z,827.47
2017-05-13T00:25:51.909Z,827.49
2017-05-13T00:25:56.396Z,827.46
2017-05-13T00:26:00.705Z,827.42
2017-05-13T00:26:05.119Z,827.45
2017-05-13T00:26:09.428Z,827.43
2017-05-13T00:26:13.732Z,827.45
2017-05-13T00:26:17.818Z,827.42
2017-05-13T00:26:22.245Z,827.43
2017-05-13T00:26:26.674Z,827.43
2017-05-13T00:26:31.101Z,827.43
2017-05-13T00:26:35.527Z,827.43
2017-05-13T00:26:39.838Z,827.4
2017-05-13T00:26:44.182Z,827.4
2017-05-13T00:26:48.610Z,827.4
2017-05-13T00:26:53.034Z,827.37
2017-05-13T00:26:57.228Z,827.38
2017-05-13T00:27:01.953Z,827.39
2017-05-13T00:27:06.259Z,827.34
2017-05-13T00:27:10.450Z,827.35
2017-05-13T00:27:14.763Z,827.35
2017-05-13T00:27:19.075Z,827.35
2017-05-13T00:27:23.506Z,827.38
2017-05-13T00:27:27.927Z,827.36
2017-05-13T00:27:32.355Z,827.3
2017-05-13T00:27:36.795Z,827.34
2017-05-13T00:27:41.099Z,827.32
2017-05-13T00:27:45.544Z,827.31
2017-05-13T00:27:50.013Z,827.33
2017-05-13T00:27:54.444Z,827.29
2017-05-13T00:27:58.639Z,827.26
2017-05-13T00:28:02.834Z,827.3
2017-05-13T00:28:07.272Z,827.27
2017-05-13T00:28:11.583Z,827.27
2017-05-13T00:28:15.780Z,827.27
2017-05-13T00:28:19.982Z,827.27
2017-05-13T00:28:24.305Z,827.25
2017-05-13T00:28:28.739Z,827.27
2017-05-13T00:28:33.050Z,827.2
2017-05-13T00:28:37.488Z,827.23
2017-05-13T00:28:41.963Z,827.22
2017-05-13T00:28:46.273Z,827.23
2017-05-13T00:28:50.467Z,827.23
2017-05-13T00:28:54.791Z,827.2
2017-05-13T00:28:59.153Z,827.2
2017-05-13T00:29:03.579Z,827.22
2017-05-13T00:29:08.011Z,827.2
2017-05-13T00:29:12.331Z,827.18
2017-05-13T00:29:16.525Z,827.18
2017-05-13T00:29:20.970Z,827.15
2017-05-13T00:29:25.285Z,827.12
2017-05-13T00:29:29.710Z,827.09
2017-05-13T00:29:34.492Z,827.09
2017-05-13T00:29:38.924Z,827.11
2017-05-13T00:29:43.240Z,827.06
2017-05-13T00:29:47.438Z,827.06
2017-05-13T00:29:51.862Z,827.11
2017-05-13T00:29:56.177Z,827.1
2017-05-13T00:30:00.604Z,827.11
2017-05-13T00:30:05.060Z,827.08
2017-05-13T00:30:09.253Z,827.08
2017-05-13T00:30:13.568Z,827.06
2017-05-13T00:30:17.878Z,827.07
2017-05-13T00:30:22.299Z,827.07
2017-05-13T00:30:26.724Z,827.03
2017-05-13T00:30:31.030Z,827.03
2017-05-13T00:30:35.342Z,827.06
2017-05-13T00:30:39.652Z,826.99
2017-05-13T00:30:44.091Z,826.98
2017-05-13T00:30:48.528Z,827.01
2017-05-13T00:30:52.959Z,827.02
2017-05-13T00:30:57.275Z,827.04
2017-05-13T00:31:02.057Z,827.04
2017-05-13T00:31:06.482Z,826.98
2017-05-13T00:31:10.911Z,827.01
2017-05-13T00:31:15.233Z,827.03
2017-05-13T00:31:19.314Z,827
2017-05-13T00:31:23.749Z,826.94
2017-05-13T00:31:28.060Z,826.97
2017-05-13T00:31:32.485Z,826.91
2017-05-13T00:31:36.799Z,826.9
2017-05-13T00:31:41.107Z,826.86
2017-05-13T00:31:45.539Z,826.91
2017-05-13T00:31:49.868Z,826.89
2017-05-13T00:31:54.298Z,826.93
2017-05-13T00:31:58.720Z,826.92
2017-05-13T00:32:02.925Z,826.92
2017-05-13T00:32:07.361Z,826.93
2017-05-13T00:32:11.554Z,826.93
2017-05-13T00:32:15.987Z,826.94
2017-05-13T00:32:20.294Z,826.91
2017-05-13T00:32:24.720Z,826.91
2017-05-13T00:32:29.032Z,826.93
2017-05-13T00:32:33.228Z,826.87
2017-05-13T00:32:37.696Z,826.89
2017-05-13T00:32:41.892Z,826.88
2017-05-13T00:32:46.316Z,826.9
2017-05-13T00:32:50.762Z,826.89
2017-05-13T00:32:55.245Z,826.9
2017-05-13T00:32:59.670Z,826.88
2017-05-13T00:33:04.096Z,826.86
2017-05-13T00:33:08.562Z,826.84
2017-05-13T00:33:12.987Z,826.83
2017-05-13T00:33:17.289Z,826.89
2017-05-13T00:33:21.725Z,826.85
2017-05-13T00:33:26.199Z,826.85
2017-05-13T00:33:30.622Z,826.87
2017-05-13T00:33:34.584Z,826.88
2017-05-13T00:33:38.905Z,826.88
2017-05-13T00:33:43.339Z,826.82
2017-05-13T00:33:47.769Z,826.84
2017-05-13T00:33:52.081Z,826.86
2017-05-13T00:33:56.511Z,826.85
2017-05-13T00:34:00.822Z,826.84
2017-05-13T00:34:05.017Z,826.85
2017-05-13T00:34:09.323Z,826.84
2017-05-13T00:34:13.639Z,826.85
2017-05-13T00:34:17.834Z,826.82
2017-05-13T00:34:22.260Z,826.83
2017-05-13T00:34:26.565Z,826.83
2017-05-13T00:34:30.998Z,826.77
2017-05-13T00:34:35.341Z,826.83
2017-05-13T00:34:39.780Z,826.82
2017-05-13T00:34:44.208Z,826.8
2017-05-13T00:34:48.632Z,826.79
2017-05-13T00:34:53.079Z,826.77
2017-05-13T00:34:57.507Z,826.78
2017-05-13T00:35:02.083Z,826.77
2017-05-13T00:35:06.522Z,826.74
2017-05-13T00:35:10.951Z,826.75
2017-05-13T00:35:15.259Z,826.77
2017-05-13T00:35:19.576Z,826.82
2017-05-13T00:35:23.767Z,826.79
2017-05-13T00:35:27.958Z,826.78
2017-05-13T00:35:32.436Z,826.78
2017-05-13T00:35:36.750Z,826.8
2017-05-13T00:35:41.064Z,826.79
2017-05-13T00:35:45.491Z,826.76
2017-05-13T00:35:49.926Z,826.78
2017-05-13T00:35:54.348Z,826.79
2017-05-13T00:35:58.781Z,826.73
2017-05-13T00:36:03.090Z,826.72
2017-05-13T00:36:07.406Z,826.72
2017-05-13T00:36:11.600Z,826.76
2017-05-13T00:36:15.795Z,826.73
2017-05-13T00:36:20.106Z,826.73
2017-05-13T00:36:24.423Z,826.73
2017-05-13T00:36:28.614Z,826.71
2017-05-13T00:36:33.036Z,826.72
2017-05-13T00:36:37.471Z,826.69
2017-05-13T00:36:41.893Z,826.72
2017-05-13T00:36:46.322Z,826.75
2017-05-13T00:36:50.747Z,826.7
2017-05-13T00:36:55.176Z,826.75
2017-05-13T00:36:59.632Z,826.75
2017-05-13T00:37:03.974Z,826.75
2017-05-13T00:37:08.172Z,826.72
2017-05-13T00:37:12.602Z,826.74
2017-05-13T00:37:16.912Z,826.68
2017-05-13T00:37:21.098Z,826.66
2017-05-13T00:37:25.523Z,826.72
2017-05-13T00:37:29.721Z,826.7
2017-05-13T00:37:34.075Z,826.74
2017-05-13T00:37:38.502Z,826.73
2017-05-13T00:37:42.930Z,826.71
2017-05-13T00:37:47.349Z,826.69
2017-05-13T00:37:51.794Z,826.66
2017-05-13T00:37:56.109Z,826.67
2017-05-13T00:38:00.415Z,826.71
2017-05-13T00:38:04.894Z,826.71
2017-05-13T00:38:09.088Z,826.71
2017-05-13T00:38:13.394Z,826.72
2017-05-13T00:38:17.594Z,826.67
2017-05-13T00:38:21.904Z,826.71
2017-05-13T00:38:26.332Z,826.68
2017-05-13T00:38:30.759Z,826.7
2017-05-13T00:38:35.189Z,826.7
2017-05-13T00:38:39.616Z,826.71
2017-05-13T00:38:44.057Z,826.65
2017-05-13T00:38:48.488Z,826.66
2017-05-13T00:38:52.916Z,826.65
2017-05-13T00:38:57.232Z,826.67
2017-05-13T00:39:01.961Z,826.66
2017-05-13T00:39:06.287Z,826.62
2017-05-13T00:39:10.498Z,826.63
2017-05-13T00:39:14.859Z,826.59
2017-05-13T00:39:18.929Z,826.63
2017-05-13T00:39:23.246Z,826.66
2017-05-13T00:39:27.561Z,826.62
2017-05-13T00:39:31.876Z,826.67
2017-05-13T00:39:36.302Z,826.64
2017-05-13T00:39:40.734Z,826.6
2017-05-13T00:39:45.043Z,826.59
2017-05-13T00:39:49.524Z,826.6
2017-05-13T00:39:53.954Z,826.6
2017-05-13T00:39:58.264Z,826.63
2017-05-13T00:40:02.633Z,826.62
2017-05-13T00:40:07.067Z,826.58
2017-05-13T00:40:11.260Z,826.59
2017-05-13T00:40:15.568Z,826.64
2017-05-13T00:40:19.760Z,826.62
2017-05-13T00:40:24.184Z,826.61
2017-05-13T00:40:28.259Z,826.59
2017-05-13T00:40:32.701Z,826.61
2017-05-13T00:40:37.013Z,826.6
2017-05-13T00:40:41.439Z,826.62
2017-05-13T00:40:45.860Z,826.61
2017-05-13T00:40:50.286Z,826.58
2017-05-13T00:40:54.709Z,826.62
2017-05-13T00:40:59.136Z,826.6
2017-05-13T00:41:03.763Z,826.63
2017-05-13T00:41:08.071Z,826.59
2017-05-13T00:41:12.027Z,826.57
2017-05-13T00:41:16.343Z,826.64
2017-05-13T00:41:20.768Z,826.64
2017-05-13T00:41:25.192Z,826.6
2017-05-13T00:41:29.399Z,826.61
2017-05-13T00:41:33.831Z,826.6
2017-05-13T00:41:38.292Z,826.6
2017-05-13T00:41:42.602Z,826.61
2017-05-13T00:41:47.029Z,826.59
2017-05-13T00:41:51.458Z,826.62
2017-05-13T00:41:55.894Z,826.61
2017-05-13T00:41:59.969Z,826.62
2017-05-13T00:42:04.542Z,826.62
2017-05-13T00:42:08.736Z,826.61
2017-05-13T00:42:12.934Z,826.6
2017-05-13T00:42:17.006Z,826.54
2017-05-13T00:42:21.443Z,826.53
2017-05-13T00:42:25.929Z,826.58
2017-05-13T00:42:30.355Z,826.61
2017-05-13T00:42:34.774Z,826.55
2017-05-13T00:42:39.194Z,826.56
2017-05-13T00:42:43.507Z,826.61
2017-05-13T00:42:47.936Z,826.52
2017-05-13T00:42:52.121Z,826.57
2017-05-13T00:42:56.430Z,826.55
2017-05-13T00:43:00.865Z,826.55
2017-05-13T00:43:05.546Z,826.55
2017-05-13T00:43:09.964Z,826.56
2017-05-13T00:43:14.039Z,826.52
2017-05-13T00:43:18.349Z,826.54
2017-05-13T00:43:22.820Z,826.53
2017-05-13T00:43:27.129Z,826.46
2017-05-13T00:43:31.562Z,826.48
2017-05-13T00:43:35.763Z,826.54
2017-05-13T00:43:40.184Z,826.54
2017-05-13T00:43:44.629Z,826.53
2017-05-13T00:43:49.110Z,826.53
2017-05-13T00:43:53.303Z,826.53
2017-05-13T00:43:57.739Z,826.54
2017-05-13T00:44:02.217Z,826.5
2017-05-13T00:44:06.645Z,826.54
2017-05-13T00:44:11.093Z,826.53
2017-05-13T00:44:15.400Z,826.56
2017-05-13T00:44:19.712Z,826.51
2017-05-13T00:44:24.028Z,826.47
2017-05-13T00:44:28.465Z,826.55
2017-05-13T00:44:32.673Z,826.52
2017-05-13T00:44:37.099Z,826.52
2017-05-13T00:44:41.524Z,826.52
2017-05-13T00:44:45.959Z,826.52
2017-05-13T00:44:50.385Z,826.53
2017-05-13T00:44:54.463Z,826.56
2017-05-13T00:44:58.894Z,826.51
2017-05-13T00:45:03.208Z,826.53
2017-05-13T00:45:07.523Z,826.48
2017-05-13T00:45:11.955Z,826.49
2017-05-13T00:45:16.024Z,826.49
2017-05-13T00:45:20.222Z,826.51
2017-05-13T00:45:24.646Z,826.51
2017-05-13T00:45:28.960Z,826.49
2017-05-13T00:45:33.156Z,826.47
2017-05-13T00:45:37.588Z,826.49
2017-05-13T00:45:41.897Z,826.5
2017-05-13T00:45:46.212Z,826.5
2017-05-13T00:45:50.632Z,826.5
2017-05-13T00:45:55.074Z,826.51
2017-05-13T00:45:59.505Z,826.5
2017-05-13T00:46:04.117Z,826.5
2017-05-13T00:46:08.315Z,826.5
2017-05-13T00:46:12.745Z,826.49
2017-05-13T00:46:16.931Z,826.51
2017-05-13T00:46:21.249Z,826.45
2017-05-13T00:46:25.722Z,826.46
2017-05-13T00:46:30.030Z,826.47
2017-05-13T00:46:34.452Z,826.5
2017-05-13T00:46:38.761Z,826.48
2017-05-13T00:46:43.195Z,826.48
2017-05-13T00:46:47.509Z,826.44
2017-05-13T00:46:51.940Z,826.49
2017-05-13T00:46:56.267Z,826.48
2017-05-13T00:47:00.696Z,826.47
2017-05-13T00:47:05.121Z,826.48
2017-05-13T00:47:09.593Z,826.5
2017-05-13T00:47:13.898Z,826.47
2017-05-13T00:47:18.091Z,826.43
2017-05-13T00:47:22.461Z,826.46
2017-05-13T00:47:26.887Z,826.47
2017-05-13T00:47:31.208Z,826.43
2017-05-13T00:47:35.531Z,826.48
2017-05-13T00:47:39.959Z,826.39
2017-05-13T00:47:44.267Z,826.47
2017-05-13T00:47:48.582Z,826.46
2017-05-13T00:47:52.894Z,826.42
2017-05-13T00:47:57.323Z,826.48
2017-05-13T00:48:01.753Z,826.45
2017-05-13T00:48:06.381Z,826.44
2017-05-13T00:48:10.461Z,826.46
2017-05-13T00:48:14.898Z,826.5
2017-05-13T00:48:19.329Z,826.49
2017-05-13T00:48:23.538Z,826.47
2017-05-13T00:48:28.025Z,826.48
2017-05-13T00:48:32.451Z,826.47
2017-05-13T00:48:36.771Z,826.49
2017-05-13T00:48:41.088Z,826.44
2017-05-13T00:48:45.520Z,826.52
2017-05-13T00:48:49.973Z,826.46
2017-05-13T00:48:54.413Z,826.47
2017-05-13T00:48:58.841Z,826.49
2017-05-13T00:49:03.267Z,826.48
2017-05-13T00:49:07.706Z,826.47
2017-05-13T00:49:12.130Z,826.48
2017-05-13T00:49:16.441Z,826.5
2017-05-13T00:49:20.761Z,826.48
2017-05-13T00:49:25.083Z,826.48
2017-05-13T00:49:29.522Z,826.48
2017-05-13T00:49:33.830Z,826.45
2017-05-13T00:49:38.142Z,826.46
2017-05-13T00:49:42.462Z,826.48
2017-05-13T00:49:46.944Z,826.44
2017-05-13T00:49:51.369Z,826.42
2017-05-13T00:49:55.802Z,826.41
2017-05-13T00:50:00.233Z,826.45
2017-05-13T00:50:04.597Z,826.43
2017-05-13T00:50:08.919Z,826.44
2017-05-13T00:50:13.349Z,826.41
2017-05-13T00:50:17.660Z,826.42
2017-05-13T00:50:22.095Z,826.42
2017-05-13T00:50:26.412Z,826.43
2017-05-13T00:50:30.846Z,826.42
2017-05-13T00:50:35.277Z,826.35
2017-05-13T00:50:39.709Z,826.41
2017-05-13T00:50:44.030Z,826.43
2017-05-13T00:50:48.230Z,826.37
2017-05-13T00:50:52.660Z,826.41
2017-05-13T00:50:56.974Z,826.4
2017-05-13T00:51:01.403Z,826.35
2017-05-13T00:51:05.835Z,826.41
2017-05-13T00:51:10.201Z,826.4
2017-05-13T00:51:14.514Z,826.4
2017-05-13T00:51:18.826Z,826.41
2017-05-13T00:51:23.138Z,826.39
2017-05-13T00:51:27.569Z,826.41
2017-05-13T00:51:31.999Z,826.39
2017-05-13T00:51:36.315Z,826.4
2017-05-13T00:51:40.742Z,826.38
2017-05-13T00:51:45.057Z,826.41
2017-05-13T00:51:49.371Z,826.33
2017-05-13T00:51:53.681Z,826.37
2017-05-13T00:51:58.118Z,826.36
2017-05-13T00:52:02.428Z,826.38
2017-05-13T00:52:06.625Z,826.37
2017-05-13T00:52:11.060Z,826.36
2017-05-13T00:52:15.252Z,826.38
2017-05-13T00:52:19.462Z,826.37
2017-05-13T00:52:23.775Z,826.34
2017-05-13T00:52:28.214Z,826.36
2017-05-13T00:52:32.641Z,826.34
2017-05-13T00:52:37.076Z,826.3
2017-05-13T00:52:41.392Z,826.3
2017-05-13T00:52:45.821Z,826.36
2017-05-13T00:52:50.248Z,826.35
2017-05-13T00:52:54.565Z,826.33
2017-05-13T00:52:58.990Z,826.33
2017-05-13T00:53:03.421Z,826.35
2017-05-13T00:53:07.749Z,826.34
2017-05-13T00:53:11.823Z,826.32
2017-05-13T00:53:16.144Z,826.32
2017-05-13T00:53:20.522Z,826.34
2017-05-13T00:53:24.835Z,826.32
2017-05-13T00:53:29.264Z,826.33
2017-05-13T00:53:33.582Z,826.32
2017-05-13T00:53:38.009Z,826.29
2017-05-13T00:53:42.234Z,826.32
2017-05-13T00:53:46.554Z,826.29
2017-05-13T00:53:50.986Z,826.32
2017-05-13T00:53:55.296Z,826.35
2017-05-13T00:53:59.721Z,826.31
2017-05-13T00:54:04.447Z,826.32
2017-05-13T00:54:08.758Z,826.32
2017-05-13T00:54:13.069Z,826.33
2017-05-13T00:54:17.387Z,826.27
2017-05-13T00:54:21.701Z,826.3
2017-05-13T00:54:26.127Z,826.24
2017-05-13T00:54:30.319Z,826.27
2017-05-13T00:54:34.755Z,826.25
2017-05-13T00:54:39.084Z,826.25
2017-05-13T00:54:43.508Z,826.31